Time;durP1;ratioP1;P1;durP2;ratioP2;P2;SDS_P1;SDS_P2;PMS_P1;PMS_P2;Temp;Humidity;BMP_temperature;BMP_pressure;BME280_temperature;BME280_humidity;BME280_pressure;Samples;Min_cycle;Max_cycle;Signal;HPM_P1;HPM_P2
2022/11/14 00:00:23;;;;;;;5.17;2.90;;;3.60;99.90;;;;;;5078798;28;20739;-77
2022/11/14 00:02:49;;;;;;;5.37;3.37;;;3.60;99.90;;;;;;5078192;28;20175;-77
2022/11/14 00:05:14;;;;;;;6.07;3.50;;;3.60;99.90;;;;;;5076521;28;20664;-77
2022/11/14 00:07:40;;;;;;;9.17;3.67;;;3.60;99.90;;;;;;5076970;28;20205;-77
2022/11/14 00:10:06;;;;;;;5.00;3.10;;;3.60;99.90;;;;;;5076786;28;20225;-77
2022/11/14 00:12:31;;;;;;;5.07;3.13;;;3.50;99.90;;;;;;5078944;28;20258;-77
2022/11/14 00:14:57;;;;;;;4.53;3.17;;;3.50;99.90;;;;;;5076912;28;20198;-77
2022/11/14 00:17:22;;;;;;;5.90;3.67;;;3.50;99.90;;;;;;5078549;28;20198;-78
2022/11/14 00:19:48;;;;;;;3.80;2.97;;;3.50;99.90;;;;;;5078372;28;20695;-77
2022/11/14 00:22:13;;;;;;;6.73;3.00;;;3.50;99.90;;;;;;5076942;28;20224;-77
2022/11/14 00:24:39;;;;;;;5.43;3.67;;;3.50;99.90;;;;;;5077411;28;20175;-77
2022/11/14 00:27:04;;;;;;;4.33;3.07;;;3.40;99.90;;;;;;5078134;28;20246;-77
2022/11/14 00:29:30;;;;;;;4.97;3.07;;;3.40;99.90;;;;;;5077606;28;20197;-78
2022/11/14 00:31:55;;;;;;;5.53;3.10;;;3.40;99.90;;;;;;5076514;28;20175;-77
2022/11/14 00:34:21;;;;;;;8.20;3.73;;;3.50;99.90;;;;;;5078421;28;20171;-77
2022/11/14 00:36:46;;;;;;;4.53;3.03;;;3.40;99.90;;;;;;5079478;28;20734;-77
2022/11/14 00:39:13;;;;;;;4.23;3.40;;;3.40;99.90;;;;;;5076639;28;20182;-77
2022/11/14 00:41:40;;;;;;;6.03;3.20;;;3.50;99.90;;;;;;5076619;28;20197;-77
2022/11/14 00:44:05;;;;;;;6.20;3.77;;;3.40;99.90;;;;;;5077379;28;20167;-76
2022/11/14 00:46:31;;;;;;;4.30;3.60;;;3.40;99.90;;;;;;5076075;28;20614;-77
2022/11/14 00:48:57;;;;;;;6.80;3.47;;;3.50;99.90;;;;;;5077635;28;20179;-77
2022/11/14 00:51:22;;;;;;;6.50;3.33;;;3.40;99.90;;;;;;5077771;28;20699;-77
2022/11/14 00:53:48;;;;;;;5.73;3.63;;;3.40;99.90;;;;;;5077982;28;20193;-77
2022/11/14 00:56:13;;;;;;;6.23;4.20;;;3.40;99.90;;;;;;5077455;28;20199;-78
2022/11/14 00:58:39;;;;;;;5.37;4.13;;;3.40;99.90;;;;;;5078164;28;20177;-76
2022/11/14 01:01:04;;;;;;;5.63;3.93;;;3.40;99.90;;;;;;5077820;28;20175;-77
2022/11/14 01:03:30;;;;;;;7.00;3.80;;;3.40;99.90;;;;;;5075522;28;20227;-77
2022/11/14 01:05:55;;;;;;;6.33;3.53;;;3.30;99.90;;;;;;5077213;28;20673;-78
2022/11/14 01:08:21;;;;;;;5.83;3.87;;;3.30;99.90;;;;;;5077293;28;20174;-78
2022/11/14 01:10:50;;;;;;;7.00;4.30;;;3.30;99.90;;;;;;5077381;28;20198;-77
2022/11/14 01:13:17;;;;;;;8.03;4.07;;;3.30;99.90;;;;;;5077343;28;20193;-77
2022/11/14 01:15:47;;;;;;;6.27;4.20;;;3.20;99.90;;;;;;5077040;28;20542;-77
2022/11/14 01:18:16;;;;;;;5.53;3.83;;;3.20;99.90;;;;;;5077369;28;20184;-77
2022/11/14 01:20:44;;;;;;;5.67;3.53;;;3.20;99.90;;;;;;5077990;28;20175;-77
2022/11/14 01:23:10;;;;;;;6.07;3.87;;;3.20;99.90;;;;;;5076314;28;20205;-77
2022/11/14 01:25:37;;;;;;;3.87;3.07;;;3.20;99.90;;;;;;5077705;28;20681;-77
2022/11/14 01:28:13;;;;;;;9.03;4.13;;;3.20;99.90;;;;;;5076565;28;20264;-78
2022/11/14 01:30:38;;;;;;;4.83;3.70;;;3.20;99.90;;;;;;5075995;28;20178;-78
2022/11/14 01:33:05;;;;;;;6.67;4.00;;;3.20;99.90;;;;;;5076370;28;20189;-76
2022/11/14 01:35:32;;;;;;;6.03;4.20;;;3.20;99.90;;;;;;5077978;28;20579;-77
2022/11/14 01:37:57;;;;;;;4.80;3.73;;;3.10;99.90;;;;;;5076144;28;20272;-77
2022/11/14 01:40:23;;;;;;;7.10;3.83;;;3.10;99.90;;;;;;5075460;28;20641;-77
2022/11/14 01:43:16;;;;;;;9.00;3.80;;;3.20;99.90;;;;;;5075582;28;20183;-77
2022/11/14 01:46:04;;;;;;;9.07;4.03;;;3.10;99.90;;;;;;5075643;28;20190;-77
2022/11/14 01:48:32;;;;;;;6.67;4.03;;;3.10;99.90;;;;;;5076744;28;20155;-77
2022/11/14 01:51:02;;;;;;;7.43;3.87;;;3.20;99.90;;;;;;5075863;28;20175;-77
2022/11/14 01:53:28;;;;;;;5.33;4.27;;;3.20;99.90;;;;;;5076584;28;20190;-77
2022/11/14 01:55:57;;;;;;;9.37;4.67;;;3.10;99.90;;;;;;5075247;28;20195;-77
2022/11/14 01:58:23;;;;;;;7.43;4.73;;;3.10;99.90;;;;;;5077169;28;20171;-78
2022/11/14 02:00:49;;;;;;;7.13;4.40;;;3.10;99.90;;;;;;5077847;28;20175;-77
2022/11/14 02:03:15;;;;;;;5.60;3.87;;;3.00;99.90;;;;;;5077879;28;20175;-77
2022/11/14 02:05:43;;;;;;;6.37;4.40;;;3.00;99.90;;;;;;5078118;28;20271;-77
2022/11/14 02:08:10;;;;;;;7.70;4.63;;;3.00;99.90;;;;;;5078712;28;20181;-77
2022/11/14 02:10:36;;;;;;;7.83;4.47;;;3.00;99.90;;;;;;5079875;28;20594;-77
2022/11/14 02:13:01;;;;;;;6.70;4.07;;;3.00;99.90;;;;;;5079979;28;20179;-78
2022/11/14 02:15:27;;;;;;;5.17;4.13;;;3.00;99.90;;;;;;5077248;28;20191;-77
2022/11/14 02:17:53;;;;;;;5.07;3.70;;;2.90;99.90;;;;;;5078006;28;20235;-77
2022/11/14 02:20:27;;;;;;;7.50;4.30;;;2.90;99.90;;;;;;5077969;28;20361;-77
2022/11/14 02:22:53;;;;;;;5.97;4.00;;;2.90;99.90;;;;;;5077402;28;20166;-77
2022/11/14 02:25:19;;;;;;;6.30;4.23;;;2.90;99.90;;;;;;5080571;28;20286;-77
2022/11/14 02:27:45;;;;;;;6.77;3.97;;;2.90;99.90;;;;;;5080591;28;20526;-77
2022/11/14 02:30:14;;;;;;;6.07;4.30;;;2.90;99.90;;;;;;5081340;28;20236;-77
2022/11/14 02:32:40;;;;;;;5.77;4.13;;;2.90;99.90;;;;;;5082767;28;20181;-77
2022/11/14 02:35:06;;;;;;;5.40;4.07;;;2.80;99.90;;;;;;5081780;28;20247;-77
2022/11/14 02:37:32;;;;;;;5.90;4.17;;;2.80;99.90;;;;;;5079995;28;20199;-77
2022/11/14 02:39:57;;;;;;;6.53;3.80;;;2.80;99.90;;;;;;5075627;28;20213;-77
2022/11/14 02:42:23;;;;;;;5.83;4.17;;;2.70;99.90;;;;;;5078408;28;20175;-77
2022/11/14 02:44:49;;;;;;;7.23;4.20;;;2.70;99.90;;;;;;5077080;28;20250;-78
2022/11/14 02:47:14;;;;;;;6.90;4.70;;;2.70;99.90;;;;;;5078050;28;20255;-78
2022/11/14 02:49:40;;;;;;;5.97;4.13;;;2.70;99.90;;;;;;5077501;28;20316;-78
2022/11/14 02:52:05;;;;;;;9.67;4.07;;;2.70;99.90;;;;;;5077088;28;20308;-78
2022/11/14 02:54:31;;;;;;;5.93;4.47;;;2.70;99.90;;;;;;5078094;28;20181;-78
2022/11/14 02:56:56;;;;;;;6.87;4.67;;;2.60;99.90;;;;;;5080929;28;20609;-76
2022/11/14 02:59:22;;;;;;;6.67;4.70;;;2.60;99.90;;;;;;5079929;28;20171;-77
2022/11/14 03:01:47;;;;;;;8.90;4.93;;;2.60;99.90;;;;;;5081284;28;20178;-77
2022/11/14 03:04:13;;;;;;;8.17;4.40;;;2.60;99.90;;;;;;5078972;28;20194;-77
2022/11/14 03:06:38;;;;;;;7.33;4.77;;;2.60;99.90;;;;;;5079192;28;20206;-78
2022/11/14 03:09:04;;;;;;;9.13;4.87;;;2.60;99.90;;;;;;5079093;28;20248;-78
2022/11/14 03:11:30;;;;;;;7.53;4.77;;;2.50;99.90;;;;;;5080999;28;20171;-78
2022/11/14 03:13:55;;;;;;;6.87;4.50;;;2.50;99.90;;;;;;5080833;28;20175;-76
2022/11/14 03:16:21;;;;;;;6.27;4.60;;;2.50;99.90;;;;;;5081029;28;20258;-78
2022/11/14 03:18:46;;;;;;;7.13;5.10;;;2.50;99.90;;;;;;5079597;28;20269;-78
2022/11/14 03:21:18;;;;;;;7.57;5.10;;;2.40;99.90;;;;;;5078741;28;20178;-78
2022/11/14 03:23:43;;;;;;;6.73;4.07;;;2.40;99.90;;;;;;5078849;28;20177;-77
2022/11/14 03:26:10;;;;;;;6.20;3.80;;;2.30;99.90;;;;;;5078770;28;20700;-77
2022/11/14 03:28:37;;;;;;;6.20;4.83;;;2.30;99.90;;;;;;5079151;28;20182;-77
2022/11/14 03:31:02;;;;;;;5.73;4.50;;;2.30;99.90;;;;;;5079825;28;20537;-77
2022/11/14 03:33:28;;;;;;;6.37;4.73;;;2.30;99.90;;;;;;5079768;28;20179;-78
2022/11/14 03:35:54;;;;;;;7.17;5.20;;;2.20;99.90;;;;;;5079996;28;20201;-78
2022/11/14 03:38:23;;;;;;;6.83;4.70;;;2.20;99.90;;;;;;5079986;28;20190;-78
2022/11/14 03:40:49;;;;;;;8.57;5.03;;;2.20;99.90;;;;;;5079008;28;20790;-77
2022/11/14 03:43:19;;;;;;;6.00;5.10;;;2.20;99.90;;;;;;5079567;28;20194;-77
2022/11/14 03:45:45;;;;;;;9.03;4.53;;;2.20;99.90;;;;;;5078039;28;20248;-77
2022/11/14 03:48:11;;;;;;;7.67;4.23;;;2.20;99.90;;;;;;5077492;28;20667;-77
2022/11/14 03:50:37;;;;;;;8.77;4.40;;;2.20;99.90;;;;;;5077296;28;20262;-77
2022/11/14 03:53:03;;;;;;;6.73;4.47;;;2.20;99.90;;;;;;5077002;28;20206;-77
2022/11/14 03:55:28;;;;;;;5.40;4.43;;;2.20;99.90;;;;;;5075533;28;20209;-76
2022/11/14 03:57:54;;;;;;;8.10;5.53;;;2.10;99.90;;;;;;5077092;28;20202;-77
2022/11/14 04:00:20;;;;;;;5.83;4.00;;;2.00;99.90;;;;;;5077280;28;20186;-77
2022/11/14 04:02:46;;;;;;;6.73;4.63;;;2.00;99.90;;;;;;5078553;28;20183;-77
2022/11/14 04:05:12;;;;;;;7.27;4.67;;;2.10;99.90;;;;;;5077074;28;20195;-77
2022/11/14 04:07:38;;;;;;;6.00;4.27;;;2.00;99.90;;;;;;5078752;28;20243;-77
2022/11/14 04:10:04;;;;;;;8.07;4.47;;;2.00;99.90;;;;;;5077995;28;20206;-77
2022/11/14 04:12:29;;;;;;;6.43;3.80;;;1.90;99.90;;;;;;5079646;28;20199;-78
2022/11/14 04:14:55;;;;;;;7.00;4.30;;;1.90;99.90;;;;;;5077678;28;20679;-78
2022/11/14 04:17:21;;;;;;;6.93;4.47;;;1.90;99.90;;;;;;5079643;28;20218;-78
2022/11/14 04:19:46;;;;;;;6.20;4.33;;;1.80;99.90;;;;;;5078603;28;20173;-77
2022/11/14 04:22:12;;;;;;;5.50;3.70;;;1.80;99.90;;;;;;5078186;28;20171;-77
2022/11/14 04:24:37;;;;;;;7.50;4.67;;;1.80;99.90;;;;;;5078145;28;20175;-78
2022/11/14 04:27:03;;;;;;;5.37;4.20;;;1.70;99.90;;;;;;5078201;28;20191;-78
2022/11/14 04:29:28;;;;;;;6.30;4.20;;;1.70;99.90;;;;;;5078708;28;20179;-78
2022/11/14 04:31:54;;;;;;;7.37;4.97;;;1.70;99.90;;;;;;5078332;28;20194;-79
2022/11/14 04:34:19;;;;;;;9.73;4.80;;;1.70;99.90;;;;;;5077352;28;20567;-78
2022/11/14 04:36:45;;;;;;;5.47;4.37;;;1.70;99.90;;;;;;5075965;28;20529;-76
2022/11/14 04:39:10;;;;;;;7.33;4.40;;;1.70;99.90;;;;;;5077230;28;20174;-77
2022/11/14 04:41:36;;;;;;;7.77;4.20;;;1.70;99.90;;;;;;5077553;28;20174;-77
2022/11/14 04:44:01;;;;;;;5.63;4.23;;;1.70;99.90;;;;;;5079366;28;20182;-78
2022/11/14 04:46:27;;;;;;;9.73;4.50;;;1.70;99.90;;;;;;5077873;28;20199;-78
2022/11/14 04:48:52;;;;;;;7.37;4.30;;;1.70;99.90;;;;;;5078921;28;20166;-78
2022/11/14 04:51:18;;;;;;;5.50;3.90;;;1.70;99.90;;;;;;5078289;28;20560;-77
2022/11/14 04:53:44;;;;;;;6.57;4.50;;;1.70;99.90;;;;;;5079037;28;20171;-77
2022/11/14 04:56:09;;;;;;;6.63;4.00;;;1.70;99.90;;;;;;5078883;28;20542;-78
2022/11/14 04:58:35;;;;;;;5.93;4.07;;;1.70;99.90;;;;;;5077687;28;20243;-77
2022/11/14 05:01:10;;;;;;;5.67;4.37;;;1.70;99.90;;;;;;5078014;28;20167;-76
2022/11/14 05:03:35;;;;;;;5.70;4.00;;;1.70;99.90;;;;;;5077633;28;20616;-77
2022/11/14 05:06:02;;;;;;;5.37;3.80;;;1.70;99.90;;;;;;5078688;28;20251;-78
2022/11/14 05:08:27;;;;;;;7.43;4.43;;;1.70;99.90;;;;;;5076529;28;20648;-77
2022/11/14 05:10:53;;;;;;;5.20;3.97;;;1.70;99.90;;;;;;5078318;28;20165;-78
2022/11/14 05:13:18;;;;;;;5.53;4.00;;;1.70;99.90;;;;;;5078483;28;20171;-77
2022/11/14 05:15:44;;;;;;;5.77;3.70;;;1.70;99.90;;;;;;5077764;28;20183;-77
2022/11/14 05:18:09;;;;;;;3.97;3.23;;;1.70;99.90;;;;;;5076940;28;20255;-77
2022/11/14 05:20:35;;;;;;;6.43;3.80;;;1.70;99.90;;;;;;5076183;28;20178;-77
2022/11/14 05:23:01;;;;;;;9.10;3.77;;;1.70;99.90;;;;;;5075540;28;20205;-77
2022/11/14 05:25:26;;;;;;;4.40;3.23;;;1.70;99.90;;;;;;5078907;28;20198;-77
2022/11/14 05:27:52;;;;;;;6.60;4.33;;;1.70;99.90;;;;;;5076984;28;20679;-77
2022/11/14 05:30:17;;;;;;;5.53;3.83;;;1.70;99.90;;;;;;5078540;28;20541;-78
2022/11/14 05:32:43;;;;;;;7.83;3.70;;;1.70;99.90;;;;;;5076066;28;20178;-77
2022/11/14 05:35:09;;;;;;;5.50;3.80;;;1.70;99.90;;;;;;5075386;28;20198;-77
2022/11/14 05:37:34;;;;;;;7.40;4.43;;;1.70;99.90;;;;;;5075100;28;20222;-76
2022/11/14 05:40:00;;;;;;;8.53;3.83;;;1.70;99.90;;;;;;5073806;28;20316;-76
2022/11/14 05:42:26;;;;;;;5.73;3.50;;;1.70;99.90;;;;;;5073672;28;20171;-76
2022/11/14 05:44:52;;;;;;;5.60;3.37;;;1.70;99.90;;;;;;5073484;28;20173;-75
2022/11/14 05:47:18;;;;;;;9.77;3.37;;;1.70;99.90;;;;;;5067956;28;20262;-76
2022/11/14 05:49:43;;;;;;;4.83;3.77;;;1.70;99.90;;;;;;5056020;28;20176;-75
2022/11/14 05:52:09;;;;;;;4.30;3.23;;;1.70;99.90;;;;;;5066953;28;20296;-76
2022/11/14 05:54:35;;;;;;;7.27;3.27;;;1.70;99.90;;;;;;5058717;28;20171;-76
2022/11/14 05:57:00;;;;;;;4.30;3.23;;;1.70;99.90;;;;;;5057324;28;20206;-75
2022/11/14 05:59:26;;;;;;;4.70;3.40;;;1.70;99.90;;;;;;5062582;28;20166;-76
2022/11/14 06:01:52;;;;;;;6.87;3.70;;;1.80;99.90;;;;;;5072344;28;20257;-75
2022/11/14 06:04:17;;;;;;;6.30;3.90;;;1.70;99.90;;;;;;5071782;28;20171;-75
2022/11/14 06:06:43;;;;;;;4.27;3.10;;;1.70;99.90;;;;;;5073088;28;20190;-75
2022/11/14 06:09:08;;;;;;;3.50;2.77;;;1.70;99.90;;;;;;5073145;28;20186;-75
2022/11/14 06:11:34;;;;;;;7.33;3.50;;;1.70;99.90;;;;;;5071862;28;20182;-76
2022/11/14 06:13:59;;;;;;;5.87;3.63;;;1.70;99.90;;;;;;5073228;28;20175;-75
2022/11/14 06:16:25;;;;;;;4.90;3.43;;;1.70;99.90;;;;;;5071735;28;20692;-76
2022/11/14 06:18:53;;;;;;;4.60;3.20;;;1.70;99.90;;;;;;5073167;28;20522;-77
2022/11/14 06:21:21;;;;;;;5.50;3.47;;;1.70;99.90;;;;;;5073591;28;20233;-76
2022/11/14 06:23:47;;;;;;;5.73;3.73;;;1.70;99.90;;;;;;5071827;28;20171;-76
2022/11/14 06:26:25;;;;;;;4.83;3.40;;;1.70;99.90;;;;;;5071726;28;20297;-76
2022/11/14 06:28:52;;;;;;;4.80;3.67;;;1.80;99.90;;;;;;5072232;28;20201;-76
2022/11/14 06:31:19;;;;;;;10.97;4.33;;;1.80;99.90;;;;;;5078009;28;20170;-77
2022/11/14 06:33:45;;;;;;;6.80;3.77;;;1.80;99.90;;;;;;5076924;28;20262;-76
2022/11/14 06:36:11;;;;;;;5.10;3.60;;;1.80;99.90;;;;;;5078034;28;20218;-77
2022/11/14 06:38:38;;;;;;;5.47;3.67;;;1.80;99.90;;;;;;5078831;28;20166;-77
2022/11/14 06:41:09;;;;;;;4.70;3.43;;;1.90;99.90;;;;;;5077264;28;20170;-77
2022/11/14 06:43:40;;;;;;;5.00;3.60;;;1.90;99.90;;;;;;5073895;28;20162;-77
2022/11/14 06:46:07;;;;;;;5.47;3.93;;;1.90;99.90;;;;;;5078873;28;20186;-77
2022/11/14 06:48:34;;;;;;;7.27;3.50;;;1.90;99.90;;;;;;5079157;28;20175;-78
2022/11/14 06:51:01;;;;;;;4.57;3.40;;;1.90;99.90;;;;;;5079317;28;20198;-78
2022/11/14 06:53:29;;;;;;;5.17;3.60;;;1.90;99.90;;;;;;5081225;28;20170;-78
2022/11/14 06:56:16;;;;;;;5.47;3.83;;;2.00;99.90;;;;;;5080792;28;20615;-78
2022/11/14 06:58:44;;;;;;;4.77;3.77;;;2.00;99.90;;;;;;5081096;28;20174;-78
2022/11/14 07:01:19;;;;;;;8.47;3.90;;;2.00;99.90;;;;;;5081249;28;20175;-78
2022/11/14 07:03:45;;;;;;;6.17;3.43;;;2.00;99.90;;;;;;5082466;28;20160;-78
2022/11/14 07:06:13;;;;;;;5.27;3.13;;;2.00;99.90;;;;;;5083246;28;20191;-78
2022/11/14 07:08:38;;;;;;;6.37;3.93;;;2.00;99.90;;;;;;5084234;28;20167;-78
2022/11/14 07:11:24;;;;;;;4.33;3.50;;;2.10;99.90;;;;;;5080247;28;20175;-78
2022/11/14 07:13:54;;;;;;;7.20;4.07;;;2.10;99.90;;;;;;5080009;28;20179;-78
2022/11/14 07:16:23;;;;;;;6.00;4.10;;;2.10;99.90;;;;;;5080997;28;20207;-78
2022/11/14 07:18:49;;;;;;;4.53;3.37;;;2.10;99.90;;;;;;5080648;28;20206;-78
2022/11/14 07:21:14;;;;;;;4.83;3.53;;;2.20;99.90;;;;;;5080460;28;20175;-77
2022/11/14 07:23:40;;;;;;;5.93;3.97;;;2.20;99.90;;;;;;5079356;28;20179;-78
2022/11/14 07:26:08;;;;;;;6.27;4.70;;;2.20;99.90;;;;;;5080564;28;20289;-78
2022/11/14 07:28:35;;;;;;;7.27;4.87;;;2.20;99.90;;;;;;5082231;28;20242;-78
2022/11/14 07:31:12;;;;;;;8.33;5.10;;;2.30;99.90;;;;;;5082042;28;20175;-78
2022/11/14 07:33:38;;;;;;;7.47;4.70;;;2.40;99.90;;;;;;5079796;28;20193;-78
2022/11/14 07:36:05;;;;;;;8.20;5.00;;;2.50;99.90;;;;;;5088148;28;20608;-77
2022/11/14 07:38:35;;;;;;;8.13;4.17;;;2.50;99.90;;;;;;5087457;28;20182;-77
2022/11/14 07:41:03;;;;;;;7.33;4.97;;;2.60;99.90;;;;;;5087224;28;20160;-77
2022/11/14 07:43:29;;;;;;;7.40;5.43;;;2.70;99.90;;;;;;5088832;28;20186;-77
2022/11/14 07:46:03;;;;;;;7.90;5.43;;;2.80;99.90;;;;;;5088905;28;20191;-78
2022/11/14 07:48:29;;;;;;;7.83;5.60;;;2.80;99.90;;;;;;5082765;28;20159;-78
2022/11/14 07:51:03;;;;;;;12.10;5.67;;;2.90;99.90;;;;;;5080328;28;20653;-79
2022/11/14 07:53:28;;;;;;;9.00;6.03;;;2.90;99.90;;;;;;5081279;28;20190;-78
2022/11/14 07:55:55;;;;;;;9.97;6.40;;;3.00;99.90;;;;;;5081223;28;20199;-78
2022/11/14 07:58:21;;;;;;;11.50;6.33;;;3.10;99.90;;;;;;5080500;28;20556;-78
2022/11/14 08:00:47;;;;;;;11.63;7.60;;;3.20;99.90;;;;;;5079901;28;20184;-78
2022/11/14 08:03:12;;;;;;;11.00;7.13;;;3.30;99.90;;;;;;5082116;28;20250;-78
2022/11/14 08:05:38;;;;;;;9.73;6.80;;;3.40;99.90;;;;;;5080267;28;20195;-78
2022/11/14 08:08:04;;;;;;;12.33;7.13;;;3.50;99.90;;;;;;5080722;28;20163;-78
2022/11/14 08:10:30;;;;;;;11.43;7.10;;;3.60;99.90;;;;;;5079800;28;20182;-78
2022/11/14 08:13:00;;;;;;;13.10;8.17;;;3.70;99.90;;;;;;5081176;28;20171;-78
2022/11/14 08:15:26;;;;;;;16.87;9.43;;;3.80;99.90;;;;;;5081580;28;20210;-79
2022/11/14 08:17:52;;;;;;;15.33;9.67;;;3.90;99.90;;;;;;5079894;28;20199;-78
2022/11/14 08:20:17;;;;;;;18.63;11.10;;;4.00;99.90;;;;;;5081740;28;20267;-78
2022/11/14 08:22:43;;;;;;;22.67;12.40;;;4.10;99.90;;;;;;5081615;28;20175;-78
2022/11/14 08:25:08;;;;;;;23.70;12.57;;;4.30;99.90;;;;;;5079167;28;20207;-78
2022/11/14 08:27:34;;;;;;;21.80;12.70;;;4.40;99.90;;;;;;5081089;28;20171;-78
2022/11/14 08:29:59;;;;;;;30.13;13.77;;;4.50;99.90;;;;;;5079770;28;20262;-78
2022/11/14 08:32:25;;;;;;;21.63;13.73;;;4.60;99.90;;;;;;5080233;28;20295;-78
2022/11/14 08:34:50;;;;;;;24.37;14.13;;;4.70;99.90;;;;;;5080889;28;20520;-78
2022/11/14 08:37:16;;;;;;;33.17;14.10;;;4.80;99.90;;;;;;5081322;28;20202;-78
2022/11/14 08:39:41;;;;;;;29.87;14.67;;;4.90;99.90;;;;;;5081334;28;20577;-78
2022/11/14 08:42:07;;;;;;;27.17;15.83;;;4.90;99.90;;;;;;5080306;28;20166;-78
2022/11/14 08:44:32;;;;;;;29.40;14.90;;;5.00;99.90;;;;;;5081243;28;20253;-78
2022/11/14 08:46:59;;;;;;;30.10;15.63;;;5.20;99.90;;;;;;5081679;28;20195;-78
2022/11/14 08:49:25;;;;;;;27.67;15.13;;;5.20;99.90;;;;;;5081069;28;20163;-78
2022/11/14 08:51:51;;;;;;;31.47;15.40;;;5.30;99.90;;;;;;5079841;28;20589;-78
2022/11/14 08:54:17;;;;;;;28.80;15.23;;;5.40;99.90;;;;;;5079820;28;20644;-78
2022/11/14 08:56:43;;;;;;;30.83;15.73;;;5.50;99.90;;;;;;5081386;28;20248;-78
2022/11/14 08:59:08;;;;;;;30.90;14.77;;;5.60;99.90;;;;;;5078735;28;20590;-78
2022/11/14 09:01:34;;;;;;;29.87;15.77;;;5.70;99.90;;;;;;5081045;28;20198;-78
2022/11/14 09:04:00;;;;;;;27.43;14.57;;;5.80;99.90;;;;;;5078708;28;20163;-77
2022/11/14 09:06:25;;;;;;;26.10;14.73;;;5.90;99.90;;;;;;5081953;28;20696;-78
2022/11/14 09:08:51;;;;;;;29.87;15.40;;;6.00;99.90;;;;;;5084137;28;20178;-77
2022/11/14 09:11:17;;;;;;;29.27;14.67;;;6.00;99.90;;;;;;5083942;28;20261;-79
2022/11/14 09:13:42;;;;;;;28.07;14.93;;;6.10;99.90;;;;;;5085990;28;20205;-79
2022/11/14 09:16:08;;;;;;;31.73;14.83;;;6.20;99.90;;;;;;5087008;28;20210;-79
2022/11/14 09:18:33;;;;;;;29.27;14.67;;;6.30;99.90;;;;;;5078196;28;20540;-79
2022/11/14 09:21:04;;;;;;;24.23;13.63;;;6.40;99.90;;;;;;5083241;28;20183;-78
2022/11/14 09:23:30;;;;;;;25.07;13.43;;;6.40;99.90;;;;;;5088136;28;20175;-78
2022/11/14 09:25:55;;;;;;;28.10;14.50;;;6.50;99.90;;;;;;5087443;28;20216;-78
2022/11/14 09:28:22;;;;;;;24.87;13.30;;;6.50;99.90;;;;;;5087756;28;20171;-78
2022/11/14 09:30:48;;;;;;;21.47;13.03;;;6.50;99.90;;;;;;5086612;28;20174;-78
2022/11/14 09:33:14;;;;;;;27.20;13.57;;;6.60;99.90;;;;;;5084685;28;20171;-78
2022/11/14 09:35:40;;;;;;;25.33;13.67;;;6.70;99.90;;;;;;5078341;28;20258;-78
2022/11/14 09:38:08;;;;;;;21.13;12.67;;;6.60;99.90;;;;;;5080142;28;20559;-78
2022/11/14 09:40:43;;;;;;;25.13;13.93;;;6.70;99.90;;;;;;5085592;28;20165;-79
2022/11/14 09:43:26;;;;;;;23.00;13.10;;;6.70;99.90;;;;;;5078068;28;20162;-78
2022/11/14 09:45:52;;;;;;;23.47;13.70;;;6.80;99.90;;;;;;5079596;28;20193;-77
2022/11/14 09:48:23;;;;;;;21.80;13.27;;;6.80;99.90;;;;;;5079334;28;20250;-78
2022/11/14 09:51:14;;;;;;;21.10;12.90;;;6.80;99.90;;;;;;5077718;28;20603;-79
2022/11/14 09:53:50;;;;;;;22.10;13.00;;;6.90;99.90;;;;;;5074593;28;20193;-77
2022/11/14 09:56:21;;;;;;;22.20;12.83;;;7.00;99.90;;;;;;5079081;28;20565;-77
2022/11/14 09:58:47;;;;;;;23.47;13.93;;;7.00;99.90;;;;;;5078274;28;20217;-78
2022/11/14 10:01:35;;;;;;;23.13;13.00;;;7.00;99.90;;;;;;5078561;28;20175;-78
2022/11/14 10:04:26;;;;;;;22.63;12.60;;;7.10;99.90;;;;;;5076996;28;20174;-78
2022/11/14 10:07:14;;;;;;;26.27;12.57;;;7.10;99.90;;;;;;5079149;28;20187;-78
2022/11/14 10:09:50;;;;;;;20.73;11.60;;;7.10;99.90;;;;;;5079296;28;20178;-78
2022/11/14 10:12:34;;;;;;;17.93;11.57;;;7.20;99.90;;;;;;5079072;28;20216;-78
2022/11/14 10:15:24;;;;;;;19.07;11.13;;;7.20;99.90;;;;;;5079998;28;20277;-78
2022/11/14 10:18:12;;;;;;;19.33;11.43;;;7.20;99.90;;;;;;5077564;28;20561;-78
2022/11/14 10:20:44;;;;;;;19.07;11.10;;;7.20;99.90;;;;;;5078714;28;20292;-78
2022/11/14 10:23:37;;;;;;;15.50;9.53;;;7.20;99.90;;;;;;5080096;28;20172;-78
2022/11/14 10:26:14;;;;;;;19.00;10.83;;;7.30;99.90;;;;;;5080814;28;20234;-79
2022/11/14 10:28:52;;;;;;;16.57;9.27;;;7.30;99.90;;;;;;5080233;28;20614;-78
2022/11/14 10:31:21;;;;;;;14.53;9.33;;;7.30;99.90;;;;;;5079641;28;20166;-78
2022/11/14 10:33:58;;;;;;;14.63;8.93;;;7.30;99.90;;;;;;5079664;28;20163;-78
2022/11/14 10:36:32;;;;;;;11.93;7.90;;;7.40;99.90;;;;;;5079288;28;20202;-78
2022/11/14 10:39:11;;;;;;;13.07;8.60;;;7.40;99.90;;;;;;5077811;28;20167;-78
2022/11/14 10:41:38;;;;;;;12.37;7.63;;;7.50;99.90;;;;;;5078854;28;20155;-79
2022/11/14 10:44:13;;;;;;;12.43;7.80;;;7.50;99.90;;;;;;5079498;28;20163;-78
2022/11/14 10:46:46;;;;;;;10.80;6.90;;;7.50;99.90;;;;;;5078584;28;20198;-78
2022/11/14 10:49:24;;;;;;;11.13;7.07;;;7.60;99.90;;;;;;5076866;28;20174;-78
2022/11/14 10:51:54;;;;;;;11.17;6.20;;;7.60;99.90;;;;;;5078035;28;20155;-78
2022/11/14 10:54:55;;;;;;;9.17;7.10;;;7.70;99.90;;;;;;5078775;28;20171;-78
2022/11/14 10:57:21;;;;;;;7.90;5.03;;;7.70;99.90;;;;;;5078798;28;20270;-78
2022/11/14 10:59:47;;;;;;;10.87;6.13;;;7.80;99.90;;;;;;5077821;28;20225;-78
2022/11/14 11:02:16;;;;;;;12.53;5.70;;;7.80;99.90;;;;;;5076755;28;20171;-78
2022/11/14 11:04:43;;;;;;;8.20;5.33;;;7.90;99.90;;;;;;5077601;28;20174;-78
2022/11/14 11:07:09;;;;;;;9.37;5.43;;;7.90;99.90;;;;;;5079379;28;20175;-78
2022/11/14 11:12:35;;;;;;;9.77;5.77;;;8.00;99.90;;;;;;5080435;28;20544;-78
2022/11/14 11:15:17;;;;;;;9.03;6.03;;;8.10;99.90;;;;;;5080031;28;20230;-79
2022/11/14 11:18:00;;;;;;;8.37;5.33;;;8.20;99.90;;;;;;5082016;28;20195;-78
2022/11/14 11:20:29;;;;;;;8.20;5.83;;;8.20;99.90;;;;;;5082058;28;20197;-79
2022/11/14 11:23:01;;;;;;;10.97;6.10;;;8.20;99.90;;;;;;5084090;28;20167;-78
2022/11/14 11:25:29;;;;;;;8.67;5.70;;;8.30;99.90;;;;;;5208639;22;20213;-80
2022/11/14 11:28:06;;;;;;;10.53;5.80;;;8.30;99.90;;;;;;5092112;28;20205;-79
2022/11/14 11:30:31;;;;;;;10.27;6.23;;;8.40;99.90;;;;;;5077149;28;20171;-79
2022/11/14 11:33:19;;;;;;;10.10;6.00;;;8.40;99.90;;;;;;5077403;28;20240;-79
2022/11/14 11:35:48;;;;;;;10.13;6.70;;;8.50;99.90;;;;;;5075791;28;20579;-79
2022/11/14 11:38:14;;;;;;;10.87;6.30;;;8.50;99.90;;;;;;5076033;28;20238;-79
2022/11/14 11:40:44;;;;;;;9.50;6.30;;;8.60;99.90;;;;;;5075911;28;20655;-79
2022/11/14 11:43:30;;;;;;;13.50;6.90;;;8.70;99.90;;;;;;5077299;28;20529;-79
2022/11/14 11:46:01;;;;;;;11.93;7.43;;;8.70;99.90;;;;;;5076950;28;20187;-79
2022/11/14 11:48:36;;;;;;;11.73;7.57;;;8.80;99.90;;;;;;5075861;28;20198;-79
2022/11/14 11:51:04;;;;;;;13.10;8.27;;;8.80;99.90;;;;;;5077199;28;20210;-79
2022/11/14 11:53:38;;;;;;;13.70;8.63;;;8.80;99.90;;;;;;5077053;28;20258;-79
2022/11/14 11:56:10;;;;;;;13.07;7.97;;;8.90;99.90;;;;;;5075747;28;20200;-79
2022/11/14 11:58:44;;;;;;;14.30;8.37;;;8.80;99.90;;;;;;5075850;28;20170;-79
2022/11/14 12:01:11;;;;;;;12.23;7.87;;;8.90;99.90;;;;;;5076897;28;20175;-79
2022/11/14 12:03:37;;;;;;;15.30;7.43;;;8.90;99.90;;;;;;5075595;28;20192;-79
2022/11/14 12:06:16;;;;;;;13.23;8.60;;;8.90;99.90;;;;;;5075912;28;20190;-79
2022/11/14 12:08:57;;;;;;;15.30;9.20;;;8.90;99.90;;;;;;5076535;28;20644;-79
2022/11/14 12:11:26;;;;;;;12.23;8.20;;;9.00;99.90;;;;;;5076998;28;20240;-79
2022/11/14 12:14:08;;;;;;;13.07;8.43;;;9.00;99.90;;;;;;5076681;28;20197;-79
2022/11/14 12:16:46;;;;;;;13.70;8.10;;;9.10;99.90;;;;;;5074895;28;20198;-79
2022/11/14 12:19:14;;;;;;;13.47;8.67;;;9.20;99.90;;;;;;5075822;28;20167;-79
2022/11/14 12:22:06;;;;;;;14.27;9.23;;;9.20;99.90;;;;;;5076481;28;20194;-79
2022/11/14 12:24:43;;;;;;;13.07;8.57;;;9.30;99.90;;;;;;5075734;28;20232;-79
2022/11/14 12:27:26;;;;;;;12.03;8.63;;;9.20;99.90;;;;;;5074577;28;20733;-79
2022/11/14 12:30:12;;;;;;;10.57;7.43;;;9.20;99.90;;;;;;5076891;28;20186;-79
2022/11/14 12:32:47;;;;;;;12.77;8.73;;;9.20;99.90;;;;;;5077038;28;20155;-79
2022/11/14 12:35:32;;;;;;;13.50;8.83;;;9.20;99.90;;;;;;5075433;28;20177;-79
2022/11/14 12:38:01;;;;;;;11.97;7.80;;;9.30;99.90;;;;;;5076915;28;20190;-79
2022/11/14 12:40:33;;;;;;;12.03;8.17;;;9.30;99.90;;;;;;5075050;28;20178;-79
2022/11/14 12:43:00;;;;;;;11.53;7.33;;;9.30;99.90;;;;;;5076190;28;20175;-79
2022/11/14 12:45:41;;;;;;;11.17;8.23;;;9.30;99.90;;;;;;5076106;28;20173;-80
2022/11/14 12:48:34;;;;;;;11.30;7.80;;;9.30;99.90;;;;;;5075260;28;20175;-79
2022/11/14 12:51:01;;;;;;;10.43;8.37;;;9.30;99.90;;;;;;5074235;28;20187;-79
2022/11/14 12:53:35;;;;;;;11.77;7.80;;;9.40;99.90;;;;;;5075356;28;20193;-79
2022/11/14 12:56:07;;;;;;;11.43;7.47;;;9.40;99.90;;;;;;5076547;28;20197;-79
2022/11/14 12:58:43;;;;;;;11.10;8.17;;;9.40;99.90;;;;;;5076447;28;20255;-79
2022/11/14 13:01:45;;;;;;;12.17;7.97;;;9.40;99.90;;;;;;5076934;28;20239;-79
2022/11/14 13:04:56;;;;;;;11.00;7.63;;;9.40;99.90;;;;;;5076283;28;20167;-79